Time;durP1;ratioP1;P1;durP2;ratioP2;P2;SDS_P1;SDS_P2;PMS_P1;PMS_P2;Temp;Humidity;BMP_temperature;BMP_pressure;BME280_temperature;BME280_humidity;BME280_pressure;Samples;Min_cycle;Max_cycle;Signal;HPM_P1;HPM_P2
2022/04/15 00:02:18;;;;;;;20.33;9.93;;;;;;;9.98;86.84;102502.69;5013539;28;20022;-41
2022/04/15 00:04:43;;;;;;;17.58;9.25;;;;;;;9.97;87.89;102506.25;5013725;28;20026;-41
2022/04/15 00:07:10;;;;;;;14.65;9.43;;;;;;;9.86;88.16;102507.22;5013519;28;20021;-42
2022/04/15 00:09:36;;;;;;;15.48;8.70;;;;;;;9.93;87.43;102506.53;5013497;28;20022;-42
2022/04/15 00:12:06;;;;;;;16.73;9.02;;;;;;;9.81;86.76;102511.97;5013287;28;20046;-41
2022/04/15 00:14:33;;;;;;;14.82;8.18;;;;;;;9.79;86.97;102506.16;4996048;28;20022;-42
2022/04/15 00:16:59;;;;;;;12.20;7.93;;;;;;;9.92;87.06;102506.66;4995842;28;20068;-42
2022/04/15 00:19:24;;;;;;;14.40;7.90;;;;;;;9.80;86.67;102510.38;5013411;28;20049;-42
2022/04/15 00:21:50;;;;;;;14.02;7.63;;;;;;;9.85;87.78;102509.00;5013274;28;20025;-42
2022/04/15 00:24:15;;;;;;;12.77;7.60;;;;;;;9.66;86.77;102503.84;5013584;28;20116;-42
2022/04/15 00:26:40;;;;;;;13.02;7.22;;;;;;;9.78;87.26;102507.94;5013638;28;20080;-43
2022/04/15 00:29:06;;;;;;;14.27;7.93;;;;;;;9.66;87.17;102511.59;5013309;28;20037;-42
2022/04/15 00:31:32;;;;;;;13.10;7.82;;;;;;;9.59;88.42;102516.50;5013237;28;20030;-41
2022/04/15 00:33:57;;;;;;;13.95;7.35;;;;;;;9.75;87.46;102518.50;4996039;28;20182;-41
2022/04/15 00:36:23;;;;;;;15.02;7.63;;;;;;;9.96;86.80;102514.97;5013179;28;20034;-42
2022/04/15 00:38:48;;;;;;;14.18;7.65;;;;;;;9.85;86.74;102519.31;5013476;28;20420;-39
2022/04/15 00:41:15;;;;;;;15.13;7.43;;;;;;;9.90;87.12;102518.91;5013527;28;20030;-41
2022/04/15 00:43:40;;;;;;;13.65;7.55;;;;;;;9.90;87.05;102511.97;4995683;28;20107;-43
2022/04/15 00:46:09;;;;;;;13.98;7.00;;;;;;;9.89;86.99;102522.44;5016414;28;20030;-41
2022/04/15 00:48:38;;;;;;;13.30;6.82;;;;;;;10.01;86.80;102516.16;5016765;28;20365;-41
2022/04/15 00:51:05;;;;;;;11.25;6.78;;;;;;;10.14;86.00;102518.44;5016783;28;20423;-42
2022/04/15 00:53:31;;;;;;;10.82;6.78;;;;;;;9.98;85.95;102516.41;4999293;28;20492;-42
2022/04/15 00:55:59;;;;;;;15.45;6.55;;;;;;;9.97;86.12;102516.56;4999560;28;20033;-42
2022/04/15 00:58:25;;;;;;;12.63;6.40;;;;;;;10.06;85.57;102513.94;5000034;28;20109;-43
2022/04/15 01:00:54;;;;;;;10.52;6.30;;;;;;;9.85;86.25;102511.56;5016607;28;20030;-41
2022/04/15 01:03:22;;;;;;;15.80;6.65;;;;;;;10.04;86.60;102520.22;5016829;28;20026;-42
2022/04/15 01:05:51;;;;;;;12.50;6.35;;;;;;;9.95;85.79;102521.88;5016728;28;20030;-42
2022/04/15 01:08:21;;;;;;;8.57;5.85;;;;;;;10.01;86.08;102517.91;5016356;28;20036;-42
2022/04/15 01:10:47;;;;;;;14.18;6.47;;;;;;;9.84;86.79;102517.69;5017188;28;20026;-41
2022/04/15 01:13:13;;;;;;;14.13;6.40;;;;;;;10.05;86.33;102517.50;5016182;28;20050;-41
2022/04/15 01:15:39;;;;;;;11.23;6.03;;;;;;;10.10;85.27;102522.25;5016377;28;20022;-40
2022/04/15 01:18:05;;;;;;;15.05;6.63;;;;;;;9.79;86.77;102519.06;5016269;28;20084;-41
2022/04/15 01:20:31;;;;;;;14.13;6.03;;;;;;;9.53;87.66;102524.81;5016494;28;20376;-41
2022/04/15 01:22:56;;;;;;;11.68;6.00;;;;;;;9.57;88.44;102530.50;5014981;28;20026;-41
2022/04/15 01:25:21;;;;;;;11.43;5.63;;;;;;;9.80;88.18;102526.66;4999061;28;20057;-40
2022/04/15 01:27:48;;;;;;;13.88;5.88;;;;;;;9.95;87.23;102524.44;5016256;28;20034;-40
2022/04/15 01:30:20;;;;;;;13.70;5.43;;;;;;;10.25;85.99;102527.78;5015966;28;20080;-40
2022/04/15 01:32:47;;;;;;;16.90;5.38;;;;;;;10.23;85.18;102529.69;5016263;28;20022;-41
2022/04/15 01:35:14;;;;;;;10.60;5.07;;;;;;;10.28;86.04;102523.16;4998355;28;20116;-41
2022/04/15 01:37:40;;;;;;;12.07;5.18;;;;;;;10.16;85.53;102529.44;5015767;28;20026;-41
2022/04/15 01:40:08;;;;;;;11.77;4.82;;;;;;;10.22;86.04;102534.03;5015735;28;20045;-41
2022/04/15 01:42:35;;;;;;;11.20;5.18;;;;;;;10.22;85.70;102530.66;5015665;28;20069;-42
2022/04/15 01:45:01;;;;;;;13.27;4.95;;;;;;;10.16;86.50;102537.19;5015710;28;20029;-41
2022/04/15 01:47:26;;;;;;;12.38;5.07;;;;;;;10.08;86.37;102530.13;5015706;28;20383;-42
2022/04/15 01:49:52;;;;;;;9.90;5.07;;;;;;;10.23;85.96;102538.25;5015471;28;20113;-42
2022/04/15 01:52:17;;;;;;;11.65;4.70;;;;;;;10.31;85.43;102535.78;4997923;28;20030;-41
2022/04/15 01:54:42;;;;;;;11.60;4.97;;;;;;;10.21;85.43;102537.56;4997893;28;20064;-41
2022/04/15 01:57:07;;;;;;;6.70;4.10;;;;;;;10.10;86.18;102543.72;4997230;28;20026;-41
2022/04/15 01:59:33;;;;;;;9.98;4.88;;;;;;;10.15;84.87;102546.69;5015362;28;20022;-41
2022/04/15 02:01:58;;;;;;;12.75;5.07;;;;;;;10.04;85.45;102536.56;5015704;28;20051;-41
2022/04/15 02:04:25;;;;;;;13.27;5.28;;;;;;;10.29;85.27;102549.81;5015404;28;20029;-41
2022/04/15 02:06:52;;;;;;;9.23;5.03;;;;;;;10.03;85.37;102545.22;5015312;28;20087;-41
2022/04/15 02:09:17;;;;;;;12.38;5.13;;;;;;;10.17;86.36;102546.56;5015037;28;20033;-42
2022/04/15 02:11:42;;;;;;;11.85;5.25;;;;;;;10.15;85.26;102546.69;5015233;28;20439;-41
2022/04/15 02:14:08;;;;;;;12.10;5.40;;;;;;;10.13;84.90;102550.38;5015448;28;20022;-41
2022/04/15 02:16:34;;;;;;;11.45;5.45;;;;;;;9.91;85.78;102539.41;5015485;28;20025;-42
2022/04/15 02:19:00;;;;;;;12.98;6.05;;;;;;;9.92;85.87;102542.81;5015691;28;20097;-42
2022/04/15 02:21:25;;;;;;;12.20;5.72;;;;;;;10.10;85.97;102548.09;5015260;28;20436;-41
2022/04/15 02:23:50;;;;;;;9.75;5.82;;;;;;;10.19;85.64;102547.25;5015541;28;20049;-41
2022/04/15 02:26:16;;;;;;;12.20;5.68;;;;;;;10.28;85.24;102549.00;5014981;28;20026;-42
2022/04/15 02:28:41;;;;;;;10.32;5.50;;;;;;;10.19;84.83;102551.59;5014820;28;20418;-41
2022/04/15 02:31:06;;;;;;;11.02;5.95;;;;;;;10.22;85.33;102546.16;5014799;28;20121;-41
2022/04/15 02:33:32;;;;;;;19.05;6.20;;;;;;;10.09;85.51;102551.59;5015101;28;20030;-41
2022/04/15 02:35:57;;;;;;;16.55;6.18;;;;;;;10.13;86.14;102550.38;5014831;28;20037;-41
2022/04/15 02:38:22;;;;;;;14.57;6.50;;;;;;;10.10;86.37;102554.06;4997148;28;20449;-41
2022/04/15 02:40:48;;;;;;;12.82;6.50;;;;;;;10.29;85.24;102557.56;5015032;28;20025;-41
2022/04/15 02:43:14;;;;;;;11.48;6.20;;;;;;;10.37;84.70;102558.47;4997822;28;20022;-41
2022/04/15 02:45:40;;;;;;;14.45;6.00;;;;;;;10.40;84.84;102554.81;5015185;28;20053;-41
2022/04/15 02:48:05;;;;;;;18.05;6.68;;;;;;;10.39;84.44;102558.34;5014608;28;20080;-41
2022/04/15 02:50:31;;;;;;;11.57;5.90;;;;;;;10.35;85.01;102554.41;5014461;28;20053;-40
2022/04/15 02:52:58;;;;;;;12.48;5.75;;;;;;;10.32;84.92;102555.50;5015044;28;20022;-39
2022/04/15 02:55:24;;;;;;;11.35;4.72;;;;;;;10.26;85.45;102556.03;5014662;28;20075;-43
2022/04/15 02:57:49;;;;;;;14.13;4.53;;;;;;;10.29;84.59;102562.72;5014438;28;20022;-41
2022/04/15 03:00:15;;;;;;;10.50;4.47;;;;;;;10.22;85.38;102567.63;5014391;28;20354;-43
2022/04/15 03:02:40;;;;;;;10.90;4.05;;;;;;;10.16;85.06;102568.19;5014652;28;20473;-40
2022/04/15 03:05:09;;;;;;;8.27;3.70;;;;;;;10.12;85.39;102567.63;5014237;28;20022;-41
2022/04/15 03:07:34;;;;;;;11.15;4.22;;;;;;;10.27;84.97;102569.81;5014499;28;20487;-41
2022/04/15 03:10:00;;;;;;;11.25;4.50;;;;;;;10.28;84.97;102571.44;4996481;28;20026;-42
2022/04/15 03:12:25;;;;;;;9.90;4.15;;;;;;;10.10;84.87;102571.34;5014136;28;20046;-42
2022/04/15 03:14:51;;;;;;;8.57;4.25;;;;;;;9.93;84.99;102578.84;5014436;28;20068;-41
2022/04/15 03:17:16;;;;;;;12.27;4.18;;;;;;;9.99;85.76;102566.34;5012873;28;20584;-40
2022/04/15 03:19:42;;;;;;;9.32;4.25;;;;;;;10.01;85.39;102570.41;4980368;28;20022;-42
2022/04/15 03:22:07;;;;;;;9.82;3.75;;;;;;;10.11;84.74;102568.59;5012825;28;20030;-42
2022/04/15 03:24:32;;;;;;;7.90;3.70;;;;;;;10.16;84.04;102570.78;4996405;28;20040;-41
2022/04/15 03:26:58;;;;;;;7.38;3.60;;;;;;;10.07;83.80;102563.84;4997154;28;20068;-42
2022/04/15 03:29:23;;;;;;;8.43;3.65;;;;;;;9.94;84.01;102585.63;5013842;28;20033;-42
2022/04/15 03:31:49;;;;;;;10.10;4.20;;;;;;;10.03;83.95;102583.97;4996298;28;20376;-42
2022/04/15 03:34:14;;;;;;;7.43;3.55;;;;;;;10.06;83.52;102573.38;4996257;28;20362;-42
2022/04/15 03:36:40;;;;;;;7.88;3.63;;;;;;;10.00;83.46;102584.25;5014047;28;20029;-42
2022/04/15 03:39:06;;;;;;;9.65;3.60;;;;;;;9.97;84.19;102586.31;5014027;28;20100;-47
2022/04/15 03:41:31;;;;;;;11.25;3.97;;;;;;;9.86;84.00;102588.06;5013726;28;20026;-42
2022/04/15 03:43:56;;;;;;;9.32;3.90;;;;;;;9.83;84.06;102588.34;5013720;28;20110;-41
2022/04/15 03:46:22;;;;;;;10.68;3.30;;;;;;;9.78;84.81;102589.72;5013724;28;20388;-41
2022/04/15 03:48:47;;;;;;;7.38;3.33;;;;;;;9.91;83.30;102595.44;4996295;28;20075;-42
2022/04/15 03:51:13;;;;;;;12.27;3.58;;;;;;;9.85;83.35;102596.78;5013906;28;20033;-42
2022/04/15 03:53:38;;;;;;;8.57;3.30;;;;;;;9.99;83.71;102597.31;4996216;28;20063;-40
2022/04/15 03:56:07;;;;;;;7.80;3.53;;;;;;;9.96;83.12;102589.84;5013712;28;20036;-45
2022/04/15 03:58:33;;;;;;;11.13;4.10;;;;;;;10.04;83.43;102600.28;4996537;28;20029;-42
2022/04/15 04:00:59;;;;;;;10.00;3.65;;;;;;;10.15;82.70;102592.38;5013492;28;20068;-41
2022/04/15 04:03:24;;;;;;;9.25;3.22;;;;;;;9.91;82.93;102598.81;5013739;28;20014;-42
2022/04/15 04:05:49;;;;;;;9.55;4.03;;;;;;;9.78;83.04;102605.22;5013990;28;20052;-42
2022/04/15 04:08:14;;;;;;;11.52;3.92;;;;;;;9.83;84.38;102609.00;5013536;28;20044;-41
2022/04/15 04:10:40;;;;;;;11.80;3.85;;;;;;;9.81;84.10;102616.09;5014075;28;20381;-42
2022/04/15 04:13:05;;;;;;;9.00;3.25;;;;;;;9.84;82.88;102605.50;5013320;28;20137;-42
2022/04/15 04:15:31;;;;;;;9.57;2.97;;;;;;;9.50;81.25;102605.09;4995816;28;20022;-41
2022/04/15 04:17:57;;;;;;;9.80;2.95;;;;;;;9.54;82.40;102603.06;5013359;28;20021;-42
2022/04/15 04:20:23;;;;;;;10.88;3.78;;;;;;;9.37;81.82;102607.91;5015767;28;20460;-41
2022/04/15 04:22:48;;;;;;;4.75;2.75;;;;;;;9.33;81.01;102616.06;5017495;28;20018;-41
2022/04/15 04:25:14;;;;;;;6.55;3.10;;;;;;;9.52;81.03;102615.25;5016035;28;20102;-41
2022/04/15 04:27:41;;;;;;;6.40;2.78;;;;;;;9.56;80.04;102614.88;5015937;28;20034;-41
2022/04/15 04:30:08;;;;;;;6.70;2.83;;;;;;;9.63;80.73;102625.47;5017136;28;20030;-41
2022/04/15 04:32:35;;;;;;;7.07;2.83;;;;;;;9.63;80.42;102620.31;5017408;28;20030;-41
2022/04/15 04:35:01;;;;;;;10.15;3.17;;;;;;;9.65;80.02;102626.97;5017077;28;20030;-42
2022/04/15 04:37:26;;;;;;;6.75;3.15;;;;;;;9.65;79.49;102621.00;5017064;28;20448;-41
2022/04/15 04:39:52;;;;;;;8.57;2.90;;;;;;;9.71;79.45;102630.75;5016956;28;20049;-41
2022/04/15 04:42:21;;;;;;;6.07;2.67;;;;;;;9.63;80.04;102628.84;4999948;28;20376;-41
2022/04/15 04:44:47;;;;;;;7.30;2.92;;;;;;;9.46;80.49;102635.50;5017066;28;20025;-40
2022/04/15 04:47:12;;;;;;;10.40;3.05;;;;;;;9.44;80.91;102636.59;5016850;28;20033;-41
2022/04/15 04:49:38;;;;;;;7.72;2.78;;;;;;;9.53;80.54;102633.22;5016730;28;20330;-42
2022/04/15 04:52:05;;;;;;;8.20;2.60;;;;;;;9.62;79.17;102645.31;5017553;28;20030;-41
2022/04/15 04:54:31;;;;;;;7.25;2.47;;;;;;;9.55;79.01;102648.53;5016684;28;20388;-41
2022/04/15 04:56:57;;;;;;;5.82;2.78;;;;;;;9.23;79.24;102647.81;4999183;28;20508;-41
2022/04/15 04:59:25;;;;;;;7.65;2.53;;;;;;;9.42;79.66;102657.38;5016707;28;20108;-42
2022/04/15 05:01:50;;;;;;;7.20;2.58;;;;;;;9.54;78.53;102659.81;5016804;28;20045;-41
2022/04/15 05:04:16;;;;;;;8.57;2.60;;;;;;;9.59;78.50;102657.66;5016734;28;20022;-42
2022/04/15 05:06:41;;;;;;;8.80;2.60;;;;;;;9.66;78.49;102664.72;5016673;28;20029;-42
2022/04/15 05:09:06;;;;;;;7.90;2.53;;;;;;;9.47;79.28;102665.53;5016313;28;20491;-41
2022/04/15 05:11:31;;;;;;;8.35;2.55;;;;;;;9.29;79.37;102658.56;5016259;28;20440;-42
2022/04/15 05:14:00;;;;;;;6.93;2.80;;;;;;;9.48;78.74;102666.34;5016706;28;20033;-42
2022/04/15 05:16:26;;;;;;;6.43;2.72;;;;;;;9.64;78.48;102668.41;5016380;28;20030;-41
2022/04/15 05:18:51;;;;;;;6.88;2.72;;;;;;;9.74;78.09;102676.16;4998651;28;20018;-41
2022/04/15 05:21:17;;;;;;;4.25;2.45;;;;;;;9.65;78.94;102683.75;4998586;28;20396;-40
2022/04/15 05:23:43;;;;;;;7.28;2.60;;;;;;;9.76;78.44;102676.84;5016164;28;20076;-41
2022/04/15 05:26:08;;;;;;;8.05;3.05;;;;;;;9.59;78.26;102668.00;5016130;28;20033;-41
2022/04/15 05:28:36;;;;;;;4.70;2.50;;;;;;;9.77;77.64;102683.63;4998397;28;20026;-42
2022/04/15 05:31:03;;;;;;;10.05;3.00;;;;;;;9.82;77.56;102690.03;5015188;28;20428;-42
2022/04/15 05:33:28;;;;;;;8.30;3.22;;;;;;;9.85;77.72;102694.91;5015991;28;20061;-42
2022/04/15 05:35:53;;;;;;;8.10;2.85;;;;;;;9.86;77.82;102699.13;5015909;28;20052;-42
2022/04/15 05:38:19;;;;;;;6.55;2.80;;;;;;;9.90;77.38;102695.34;5016679;28;20112;-43
2022/04/15 05:40:44;;;;;;;8.35;2.90;;;;;;;9.81;78.08;102697.88;4998568;28;20021;-44
2022/04/15 05:43:09;;;;;;;7.95;3.03;;;;;;;9.84;78.56;102697.63;5016097;28;20021;-42
2022/04/15 05:45:35;;;;;;;5.55;2.80;;;;;;;9.89;77.00;102698.03;5015722;28;20028;-41
2022/04/15 05:48:00;;;;;;;6.32;2.85;;;;;;;9.93;77.39;102705.38;4998140;28;20049;-41
2022/04/15 05:50:25;;;;;;;11.73;2.97;;;;;;;10.03;77.26;102705.38;5015786;28;20018;-41
2022/04/15 05:52:50;;;;;;;11.00;3.08;;;;;;;10.21;76.25;102710.66;5015517;28;20026;-42
2022/04/15 05:55:16;;;;;;;9.27;3.00;;;;;;;10.02;76.71;102713.28;5015783;28;20037;-41
2022/04/15 05:57:41;;;;;;;6.97;2.72;;;;;;;9.88;75.92;102714.50;5015610;28;20025;-41
2022/04/15 06:00:08;;;;;;;8.48;2.85;;;;;;;9.91;76.67;102720.19;5014289;28;20384;-40
2022/04/15 06:02:34;;;;;;;10.45;3.17;;;;;;;10.15;76.26;102727.53;5015570;28;20037;-42
2022/04/15 06:04:59;;;;;;;7.35;2.78;;;;;;;10.23;75.46;102724.28;5015554;28;20018;-41
2022/04/15 06:07:25;;;;;;;6.95;2.67;;;;;;;10.30;74.85;102724.56;5015327;28;20045;-41
2022/04/15 06:09:50;;;;;;;6.03;2.50;;;;;;;10.43;74.01;102729.47;5015123;28;20099;-42
2022/04/15 06:12:15;;;;;;;7.63;2.83;;;;;;;10.39;73.69;102740.09;5014522;28;20046;-42
2022/04/15 06:14:41;;;;;;;5.72;2.45;;;;;;;10.54;72.77;102737.06;4995499;28;20049;-41
2022/04/15 06:17:07;;;;;;;4.28;2.40;;;;;;;10.52;73.37;102728.63;5015314;28;20021;-42
2022/04/15 06:19:32;;;;;;;7.07;2.60;;;;;;;10.57;72.65;102729.84;4997011;28;20033;-43
2022/04/15 06:21:57;;;;;;;7.40;2.47;;;;;;;10.51;72.79;102734.75;5013564;28;20113;-41
2022/04/15 06:24:23;;;;;;;8.38;2.70;;;;;;;10.65;72.58;102736.91;5014617;28;20030;-43
2022/04/15 06:26:50;;;;;;;4.45;2.67;;;;;;;10.48;72.28;102743.59;5014872;28;20034;-41
2022/04/15 06:29:15;;;;;;;6.07;2.42;;;;;;;10.64;71.83;102743.03;5015679;28;20033;-41
2022/04/15 06:31:41;;;;;;;5.18;2.20;;;;;;;10.80;71.38;102753.59;5014848;28;20162;-42
2022/04/15 06:34:06;;;;;;;3.63;2.17;;;;;;;10.44;71.70;102756.94;5014405;28;20025;-41
2022/04/15 06:36:31;;;;;;;5.63;2.30;;;;;;;10.53;70.97;102762.09;5014820;28;20022;-42
2022/04/15 06:38:56;;;;;;;4.32;2.05;;;;;;;10.79;70.69;102762.34;5014849;28;20033;-42
2022/04/15 06:41:22;;;;;;;5.50;2.28;;;;;;;10.86;68.49;102765.16;5014386;28;20385;-42
2022/04/15 06:43:47;;;;;;;5.43;2.10;;;;;;;10.64;69.68;102766.28;5014352;28;20064;-42
2022/04/15 06:46:12;;;;;;;3.70;2.10;;;;;;;10.89;69.68;102777.81;5014641;28;20026;-41
2022/04/15 06:48:37;;;;;;;4.70;2.10;;;;;;;11.14;68.57;102773.00;5014336;28;20053;-41
2022/04/15 06:51:03;;;;;;;5.13;2.20;;;;;;;11.12;67.25;102772.31;5014101;28;20041;-40
2022/04/15 06:53:29;;;;;;;3.42;2.30;;;;;;;10.48;69.25;102768.66;5013609;28;20033;-41
2022/04/15 06:55:54;;;;;;;6.20;2.22;;;;;;;10.76;70.14;102780.72;5014638;28;20095;-41
2022/04/15 06:58:20;;;;;;;3.67;2.15;;;;;;;11.27;67.86;102768.28;5014510;28;20029;-40
2022/04/15 07:00:48;;;;;;;3.10;1.92;;;;;;;11.36;68.10;102772.59;4997003;28;20014;-41
2022/04/15 07:03:13;;;;;;;5.75;2.00;;;;;;;11.37;67.02;102768.25;5014818;28;20033;-41
2022/04/15 07:05:39;;;;;;;5.88;2.00;;;;;;;11.50;67.58;102771.31;4997083;28;20370;-42
2022/04/15 07:08:08;;;;;;;4.68;2.00;;;;;;;11.74;67.71;102779.38;4996494;28;20109;-42
2022/04/15 07:10:34;;;;;;;5.00;2.00;;;;;;;11.48;67.20;102775.84;5013332;28;20026;-42
2022/04/15 07:13:00;;;;;;;5.68;2.10;;;;;;;11.35;66.99;102770.97;5014011;28;20057;-42
2022/04/15 07:15:25;;;;;;;7.82;2.10;;;;;;;11.44;67.11;102771.91;5014277;28;20412;-41
2022/04/15 07:17:50;;;;;;;4.70;2.17;;;;;;;11.50;66.26;102771.31;5014154;28;20080;-43
2022/04/15 07:20:16;;;;;;;3.80;2.20;;;;;;;11.41;66.60;102774.78;5014407;28;20026;-42
2022/04/15 07:22:41;;;;;;;5.70;1.98;;;;;;;11.40;66.99;102773.16;5013555;28;20513;-41
2022/04/15 07:25:07;;;;;;;4.18;2.25;;;;;;;11.35;67.14;102777.94;5012777;28;20405;-41
2022/04/15 07:27:32;;;;;;;6.05;2.33;;;;;;;11.31;67.92;102772.25;4995593;28;20029;-41
2022/04/15 07:29:57;;;;;;;2.72;1.95;;;;;;;10.67;68.79;102778.94;5013826;28;20040;-40
2022/04/15 07:32:23;;;;;;;3.70;1.90;;;;;;;10.59;69.49;102782.25;5013981;28;20026;-41
2022/04/15 07:34:50;;;;;;;4.28;2.00;;;;;;;10.21;69.57;102775.25;5014069;28;20076;-41
2022/04/15 07:37:15;;;;;;;4.57;2.05;;;;;;;10.76;69.45;102791.06;5014432;28;20072;-42
2022/04/15 07:39:40;;;;;;;3.78;2.13;;;;;;;11.28;67.64;102798.41;5014047;28;20050;-41
2022/04/15 07:42:06;;;;;;;4.75;1.90;;;;;;;11.52;66.51;102792.72;5012995;28;20030;-42
2022/04/15 07:44:31;;;;;;;6.53;1.88;;;;;;;11.80;67.11;102788.34;5012725;28;20033;-40
2022/04/15 07:46:57;;;;;;;3.45;1.95;;;;;;;12.42;63.88;102791.03;5013665;28;20192;-42
2022/04/15 07:49:22;;;;;;;3.13;1.83;;;;;;;12.76;62.30;102785.13;5013500;28;20033;-41
2022/04/15 07:51:48;;;;;;;5.22;2.00;;;;;;;14.75;56.30;102795.72;5012737;28;20026;-42
2022/04/15 07:54:14;;;;;;;6.88;2.17;;;;;;;13.21;60.04;102792.69;4994253;28;20026;-41
2022/04/15 07:56:39;;;;;;;8.30;1.85;;;;;;;12.11;62.27;102783.66;5014267;28;20457;-42
2022/04/15 07:59:07;;;;;;;3.53;1.75;;;;;;;12.32;63.83;102798.09;5013487;28;20022;-40
2022/04/15 08:01:32;;;;;;;6.95;2.30;;;;;;;12.64;62.07;102784.56;5013674;28;20376;-40
2022/04/15 08:03:59;;;;;;;6.00;2.00;;;;;;;12.10;63.16;102794.97;5013782;28;20092;-41
2022/04/15 08:06:26;;;;;;;5.63;2.00;;;;;;;12.15;64.78;102795.34;5013404;28;20465;-41
2022/04/15 08:08:55;;;;;;;8.93;2.30;;;;;;;12.82;61.83;102792.28;5012597;28;20468;-42
2022/04/15 08:11:22;;;;;;;8.38;2.25;;;;;;;11.95;64.26;102786.91;5013302;28;20399;-41
2022/04/15 08:13:48;;;;;;;7.53;2.15;;;;;;;11.73;64.72;102795.84;5012436;28;20026;-39
2022/04/15 08:16:13;;;;;;;3.58;1.58;;;;;;;11.72;65.27;102793.44;5013327;28;20030;-41
2022/04/15 08:18:39;;;;;;;5.68;1.90;;;;;;;11.79;65.75;102793.66;5012893;28;20036;-41
2022/04/15 08:21:04;;;;;;;4.63;1.90;;;;;;;11.85;65.71;102801.69;5013036;28;20030;-40
2022/04/15 08:23:29;;;;;;;6.32;2.55;;;;;;;11.86;66.00;102800.72;5012315;28;20026;-41
2022/04/15 08:25:55;;;;;;;4.40;2.40;;;;;;;11.68;66.62;102812.78;5013365;28;20185;-42
2022/04/15 08:28:20;;;;;;;6.60;2.53;;;;;;;11.59;66.82;102806.69;5013589;28;20093;-42
2022/04/15 08:30:46;;;;;;;5.65;2.10;;;;;;;11.75;65.91;102813.84;5013263;28;20038;-42
2022/04/15 08:33:11;;;;;;;5.75;1.90;;;;;;;11.66;65.91;102818.13;5013085;28;20099;-41
2022/04/15 08:35:37;;;;;;;4.40;1.85;;;;;;;11.26;67.53;102818.44;5013353;28;20453;-41
2022/04/15 08:38:03;;;;;;;5.95;2.65;;;;;;;10.98;67.57;102826.13;5013083;28;20387;-41
2022/04/15 08:40:33;;;;;;;11.18;3.97;;;;;;;10.97;67.80;102818.53;4979409;28;20061;-42
2022/04/15 08:43:00;;;;;;;9.43;2.78;;;;;;;11.38;67.44;102824.25;5013217;28;20087;-41
2022/04/15 08:45:26;;;;;;;3.83;1.77;;;;;;;11.38;66.89;102821.66;5012714;28;20457;-41
2022/04/15 08:47:57;;;;;;;4.80;2.00;;;;;;;11.33;67.45;102827.25;4978357;28;20030;-39
2022/04/15 08:50:24;;;;;;;6.97;2.00;;;;;;;11.21;68.06;102824.03;5012639;28;20509;-42
2022/04/15 08:52:52;;;;;;;4.32;2.20;;;;;;;11.24;68.35;102823.75;5012541;28;20025;-40
2022/04/15 08:55:17;;;;;;;6.68;2.17;;;;;;;11.45;68.09;102820.97;5013258;28;20022;-41
2022/04/15 08:57:43;;;;;;;7.45;2.20;;;;;;;11.72;67.51;102817.53;5013056;28;20147;-42
2022/04/15 09:00:08;;;;;;;3.63;1.88;;;;;;;12.00;66.15;102822.75;5012702;28;20029;-42
2022/04/15 09:02:37;;;;;;;3.65;2.15;;;;;;;12.07;65.40;102826.38;5012472;28;20040;-41
2022/04/15 09:05:06;;;;;;;4.55;2.13;;;;;;;12.13;64.98;102830.97;5012232;28;20110;-42
2022/04/15 09:07:33;;;;;;;5.57;2.40;;;;;;;11.17;67.82;102835.63;5016294;28;20403;-40
2022/04/15 09:09:59;;;;;;;8.52;2.42;;;;;;;11.40;68.04;102832.69;4998758;28;20054;-40
2022/04/15 09:12:28;;;;;;;6.40;2.35;;;;;;;11.04;68.17;102840.28;5015540;28;20108;-45
2022/04/15 09:14:58;;;;;;;5.80;2.20;;;;;;;11.56;66.96;102840.66;5016583;28;20472;-38
2022/04/15 09:17:23;;;;;;;3.85;2.20;;;;;;;11.83;65.98;102842.44;4997987;28;20506;-40
2022/04/15 09:19:52;;;;;;;4.65;2.15;;;;;;;11.19;67.50;102831.13;5014952;28;20104;-42
2022/04/15 09:22:18;;;;;;;5.82;2.00;;;;;;;12.12;65.60;102837.13;5015019;28;20384;-41
2022/04/15 09:24:44;;;;;;;4.60;1.95;;;;;;;12.37;64.26;102840.75;5016354;28;20057;-42
2022/04/15 09:27:09;;;;;;;3.30;1.77;;;;;;;12.79;62.89;102847.09;4996585;28;20462;-42
2022/04/15 09:29:40;;;;;;;3.85;2.08;;;;;;;12.09;64.15;102840.00;5015920;28;20034;-42
2022/04/15 09:32:11;;;;;;;3.15;1.88;;;;;;;12.46;64.09;102836.47;5015854;28;20424;-41
2022/04/15 09:35:15;;;;;;;3.67;1.90;;;;;;;12.75;62.80;102849.19;5015859;28;20056;-41
2022/04/15 09:37:43;;;;;;;4.00;1.95;;;;;;;12.96;62.84;102854.03;4936292;29;20497;-42
2022/04/15 09:40:27;;;;;;;3.25;2.03;;;;;;;12.94;61.94;102845.56;4985699;28;20125;-43
2022/04/15 09:42:57;;;;;;;5.53;2.00;;;;;;;13.43;62.01;102856.25;5016037;28;20030;-42
2022/04/15 09:45:40;;;;;;;6.30;2.17;;;;;;;13.53;60.95;102858.75;5015774;28;20022;-41
2022/04/15 09:48:06;;;;;;;;;;;;;;;13.14;61.64;102856.56;5016429;28;20435;-41
2022/04/15 09:50:32;;;;;;;5.18;2.00;;;;;;;13.43;61.66;102858.03;4998003;28;19920;-41
2022/04/15 09:53:08;;;;;;;8.85;2.70;;;;;;;13.45;61.20;102861.31;5015520;28;20030;-41
2022/04/15 09:55:35;;;;;;;5.07;2.25;;;;;;;13.29;61.16;102860.28;5015706;28;20456;-41
2022/04/15 09:58:07;;;;;;;3.58;2.20;;;;;;;13.54;60.78;102858.59;5015590;28;20026;-42
2022/04/15 10:00:35;;;;;;;10.23;2.43;;;;;;;13.27;60.47;102863.97;5014405;28;20029;-41
2022/04/15 10:03:03;;;;;;;5.00;2.20;;;;;;;13.04;62.17;102867.06;4996961;28;20049;-42
2022/04/15 10:05:29;;;;;;;6.38;2.97;;;;;;;12.99;63.06;102877.06;5014569;28;20071;-42
2022/04/15 10:07:55;;;;;;;6.80;2.60;;;;;;;12.24;64.73;102874.00;5014538;28;20427;-42
2022/04/15 10:10:21;;;;;;;6.70;3.08;;;;;;;12.43;63.77;102875.66;4997189;28;20097;-41
2022/04/15 10:12:47;;;;;;;6.30;2.92;;;;;;;12.33;65.83;102869.72;5015064;28;20090;-41
2022/04/15 10:15:12;;;;;;;10.10;3.00;;;;;;;12.47;64.04;102871.78;5015028;28;20033;-40
2022/04/15 10:17:39;;;;;;;9.13;3.15;;;;;;;12.55;64.63;102868.47;5014518;28;20412;-42
2022/04/15 10:20:06;;;;;;;9.07;3.00;;;;;;;13.06;63.35;102869.47;4997811;28;20022;-41
2022/04/15 10:22:34;;;;;;;4.60;2.83;;;;;;;13.03;63.57;102868.03;5014936;28;20033;-40
2022/04/15 10:24:59;;;;;;;6.03;3.10;;;;;;;13.22;63.04;102873.97;5015160;28;20112;-42
2022/04/15 10:27:30;;;;;;;7.95;3.10;;;;;;;12.94;63.47;102871.50;5014811;28;20069;-41
2022/04/15 10:30:21;;;;;;;7.65;3.25;;;;;;;13.08;62.72;102880.53;5014801;28;20080;-43
2022/04/15 10:32:53;;;;;;;10.23;3.47;;;;;;;11.96;67.11;102878.41;4997323;28;20070;-42
2022/04/15 10:35:21;;;;;;;9.15;4.32;;;;;;;12.18;66.77;102878.00;5015222;28;20033;-42
2022/04/15 10:37:47;;;;;;;10.40;4.10;;;;;;;11.83;67.29;102885.69;5014245;28;20028;-41
2022/04/15 10:40:33;;;;;;;10.13;4.20;;;;;;;11.85;68.55;102881.16;5015042;28;20068;-42
2022/04/15 10:43:05;;;;;;;10.95;4.30;;;;;;;11.76;67.91;102882.81;5015352;28;20124;-39
2022/04/15 10:45:35;;;;;;;10.20;4.80;;;;;;;12.02;67.35;102872.63;5014834;28;20029;-41
2022/04/15 10:48:01;;;;;;;9.27;4.22;;;;;;;12.03;66.78;102868.28;5014782;28;20080;-42
2022/04/15 10:50:28;;;;;;;9.05;4.40;;;;;;;12.25;67.04;102867.03;5014478;28;20414;-42
2022/04/15 10:53:26;;;;;;;9.32;4.53;;;;;;;11.33;68.54;102873.03;5014365;28;20018;-40
2022/04/15 10:55:52;;;;;;;9.18;4.45;;;;;;;11.73;68.28;102880.53;5014085;28;20113;-41
2022/04/15 10:58:19;;;;;;;10.13;4.10;;;;;;;12.32;67.29;102868.91;5014457;28;20037;-41
2022/04/15 11:03:32;;;;;;;8.50;3.58;;;;;;;12.73;65.35;102869.25;5014747;28;20129;-40
2022/04/15 11:05:59;;;;;;;8.02;3.75;;;;;;;12.58;66.18;102863.78;5014426;28;20029;-41
2022/04/15 11:08:26;;;;;;;8.95;3.70;;;;;;;12.59;65.59;102867.19;4996509;28;20182;-41
2022/04/15 11:10:52;;;;;;;8.85;3.95;;;;;;;12.09;66.10;102865.91;5013844;28;20045;-41
2022/04/15 11:13:24;;;;;;;9.85;4.20;;;;;;;11.90;68.65;102876.38;5013865;28;20081;-42
2022/04/15 11:16:00;;;;;;;11.67;4.53;;;;;;;12.36;66.66;102865.03;5014072;28;20115;-40
2022/04/15 11:18:43;;;;;;;9.25;4.38;;;;;;;12.32;66.79;102862.91;5014206;28;20025;-41
2022/04/15 11:21:22;;;;;;;12.43;4.80;;;;;;;12.24;66.67;102865.41;5013476;28;20125;-42
2022/04/15 11:23:51;;;;;;;8.85;4.20;;;;;;;11.79;67.49;102876.53;5013355;28;20026;-40
2022/04/15 11:26:17;;;;;;;7.68;4.20;;;;;;;11.85;68.28;102869.03;5013678;28;20037;-41